sensor_id;sensor_type;location;lat;lon;timestamp;pressure;altitude;pressure_sealevel;temperature;humidity
13486;BME280;6815;59.336;17.998;2023-01-24T00:01:16;79937.50;;;-145.37;91.33
13486;BME280;6815;59.336;17.998;2023-01-24T00:03:41;79935.47;;;-145.37;91.54
13486;BME280;6815;59.336;17.998;2023-01-24T00:06:07;79949.56;;;-145.37;91.63
13486;BME280;6815;59.336;17.998;2023-01-24T00:08:32;79935.47;;;-145.37;91.50
13486;BME280;6815;59.336;17.998;2023-01-24T00:11:04;79935.47;;;-145.37;91.52
13486;BME280;6815;59.336;17.998;2023-01-24T00:13:30;79929.44;;;-145.37;91.50
13486;BME280;6815;59.336;17.998;2023-01-24T00:16:17;79931.47;;;-145.37;91.79
13486;BME280;6815;59.336;17.998;2023-01-24T00:18:45;79933.47;;;-145.37;91.69
13486;BME280;6815;59.336;17.998;2023-01-24T00:21:16;79917.38;;;-145.37;91.64
13486;BME280;6815;59.336;17.998;2023-01-24T00:23:45;79917.38;;;-145.37;91.86
13486;BME280;6815;59.336;17.998;2023-01-24T00:26:11;79941.53;;;-145.37;91.92
13486;BME280;6815;59.336;17.998;2023-01-24T00:28:37;79935.47;;;-145.37;91.72
13486;BME280;6815;59.336;17.998;2023-01-24T00:31:03;79925.44;;;-145.37;92.00
13486;BME280;6815;59.336;17.998;2023-01-24T00:33:28;79925.44;;;-145.37;92.12
13486;BME280;6815;59.336;17.998;2023-01-24T00:35:54;79909.31;;;-145.37;91.94
13486;BME280;6815;59.336;17.998;2023-01-24T00:38:20;79897.25;;;-145.37;92.23
13486;BME280;6815;59.336;17.998;2023-01-24T00:40:47;79895.22;;;-145.37;92.17
13486;BME280;6815;59.336;17.998;2023-01-24T00:43:15;79901.28;;;-145.37;92.00
13486;BME280;6815;59.336;17.998;2023-01-24T00:45:40;79885.19;;;-145.37;91.91
13486;BME280;6815;59.336;17.998;2023-01-24T00:48:09;79877.13;;;-145.37;91.87
13486;BME280;6815;59.336;17.998;2023-01-24T00:50:35;79885.19;;;-145.37;92.10
13486;BME280;6815;59.336;17.998;2023-01-24T00:53:01;79887.19;;;-145.37;92.06
13486;BME280;6815;59.336;17.998;2023-01-24T00:55:26;79873.09;;;-145.37;92.26
13486;BME280;6815;59.336;17.998;2023-01-24T00:57:52;79875.09;;;-145.37;92.36
13486;BME280;6815;59.336;17.998;2023-01-24T01:00:20;79885.19;;;-145.37;92.46
13486;BME280;6815;59.336;17.998;2023-01-24T01:02:47;79907.31;;;-145.37;92.26
13486;BME280;6815;59.336;17.998;2023-01-24T01:05:12;79865.06;;;-145.37;92.03
13486;BME280;6815;59.336;17.998;2023-01-24T01:07:38;79873.09;;;-145.37;92.31
13486;BME280;6815;59.336;17.998;2023-01-24T01:10:05;79865.06;;;-145.37;92.48
13486;BME280;6815;59.336;17.998;2023-01-24T01:12:34;79848.94;;;-145.37;91.98
13486;BME280;6815;59.336;17.998;2023-01-24T01:14:59;79836.88;;;-145.37;92.19
13486;BME280;6815;59.336;17.998;2023-01-24T01:17:26;79836.88;;;-145.37;92.46
13486;BME280;6815;59.336;17.998;2023-01-24T01:19:54;79832.84;;;-145.37;92.38
13486;BME280;6815;59.336;17.998;2023-01-24T01:22:19;79840.91;;;-145.37;92.35
13486;BME280;6815;59.336;17.998;2023-01-24T01:24:46;79840.91;;;-145.37;92.42
13486;BME280;6815;59.336;17.998;2023-01-24T01:27:12;79832.84;;;-145.37;92.42
13486;BME280;6815;59.336;17.998;2023-01-24T01:29:37;79832.84;;;-145.37;92.86
13486;BME280;6815;59.336;17.998;2023-01-24T01:32:04;79842.91;;;-145.37;92.85
13486;BME280;6815;59.336;17.998;2023-01-24T01:34:30;79828.81;;;-145.37;92.37
13486;BME280;6815;59.336;17.998;2023-01-24T01:36:57;79832.84;;;-145.37;92.46
13486;BME280;6815;59.336;17.998;2023-01-24T01:39:24;79830.84;;;-145.37;92.60
13486;BME280;6815;59.336;17.998;2023-01-24T01:41:51;79820.78;;;-145.37;92.61
13486;BME280;6815;59.336;17.998;2023-01-24T01:44:29;79820.78;;;-145.37;92.70
13486;BME280;6815;59.336;17.998;2023-01-24T01:52:28;79804.69;;;-145.37;92.50
13486;BME280;6815;59.336;17.998;2023-01-24T01:54:58;79794.63;;;-145.37;92.70
13486;BME280;6815;59.336;17.998;2023-01-24T01:57:27;79792.59;;;-145.37;92.42
13486;BME280;6815;59.336;17.998;2023-01-24T02:00:11;79796.63;;;-145.37;91.97
13486;BME280;6815;59.336;17.998;2023-01-24T02:02:41;79822.78;;;-145.37;92.33
13486;BME280;6815;59.336;17.998;2023-01-24T02:05:11;79806.69;;;-145.37;92.10
13486;BME280;6815;59.336;17.998;2023-01-24T02:07:53;79792.59;;;-145.37;92.07
13486;BME280;6815;59.336;17.998;2023-01-24T02:10:23;79792.59;;;-145.37;92.17
13486;BME280;6815;59.336;17.998;2023-01-24T02:12:54;79788.56;;;-145.37;92.40
13486;BME280;6815;59.336;17.998;2023-01-24T02:15:22;79782.53;;;-145.37;92.18
13486;BME280;6815;59.336;17.998;2023-01-24T02:18:07;79782.53;;;-145.37;92.26
13486;BME280;6815;59.336;17.998;2023-01-24T02:23:28;79794.63;;;-145.37;92.51
13486;BME280;6815;59.336;17.998;2023-01-24T02:26:13;79788.56;;;-145.37;92.33
13486;BME280;6815;59.336;17.998;2023-01-24T02:28:52;79776.50;;;-145.37;92.54
13486;BME280;6815;59.336;17.998;2023-01-24T02:31:57;79786.56;;;-145.37;92.50
13486;BME280;6815;59.336;17.998;2023-01-24T02:34:23;79784.56;;;-145.37;92.46
13486;BME280;6815;59.336;17.998;2023-01-24T02:36:55;79788.56;;;-145.37;92.60
13486;BME280;6815;59.336;17.998;2023-01-24T02:39:27;79780.53;;;-145.37;92.77
13486;BME280;6815;59.336;17.998;2023-01-24T02:42:05;79766.44;;;-145.37;92.63
13486;BME280;6815;59.336;17.998;2023-01-24T02:44:48;79758.38;;;-145.37;92.50
13486;BME280;6815;59.336;17.998;2023-01-24T02:47:17;79774.50;;;-145.37;92.42
13486;BME280;6815;59.336;17.998;2023-01-24T02:49:46;79768.44;;;-145.37;92.70
13486;BME280;6815;59.336;17.998;2023-01-24T02:52:12;79780.53;;;-145.37;92.92
13486;BME280;6815;59.336;17.998;2023-01-24T02:54:58;79762.41;;;-145.37;92.87
13486;BME280;6815;59.336;17.998;2023-01-24T02:57:24;79766.44;;;-145.37;92.95
13486;BME280;6815;59.336;17.998;2023-01-24T03:00:09;79784.56;;;-145.37;93.14
13486;BME280;6815;59.336;17.998;2023-01-24T03:02:39;79778.50;;;-145.37;93.19
13486;BME280;6815;59.336;17.998;2023-01-24T03:05:06;79770.47;;;-145.37;92.96
13486;BME280;6815;59.336;17.998;2023-01-24T03:07:31;79756.38;;;-145.37;93.25
13486;BME280;6815;59.336;17.998;2023-01-24T03:10:08;79750.34;;;-145.37;93.06
13486;BME280;6815;59.336;17.998;2023-01-24T03:12:35;79758.38;;;-145.37;93.26
13486;BME280;6815;59.336;17.998;2023-01-24T03:15:20;79738.25;;;-145.37;93.29
13486;BME280;6815;59.336;17.998;2023-01-24T03:18:05;79722.16;;;-145.37;93.61
13486;BME280;6815;59.336;17.998;2023-01-24T03:20:49;79730.22;;;-145.37;93.81
13486;BME280;6815;59.336;17.998;2023-01-24T03:23:34;79722.16;;;-145.37;93.94
13486;BME280;6815;59.336;17.998;2023-01-24T03:26:18;79726.19;;;-145.37;94.10
13486;BME280;6815;59.336;17.998;2023-01-24T03:29:03;79734.25;;;-145.37;94.09
13486;BME280;6815;59.336;17.998;2023-01-24T03:31:49;79718.13;;;-145.37;94.23
13486;BME280;6815;59.336;17.998;2023-01-24T03:34:33;79712.09;;;-145.37;94.33
13486;BME280;6815;59.336;17.998;2023-01-24T03:37:00;79698.00;;;-145.37;94.43
13486;BME280;6815;59.336;17.998;2023-01-24T03:39:31;79679.91;;;-145.37;94.47
13486;BME280;6815;59.336;17.998;2023-01-24T03:42:20;79671.84;;;-145.37;94.69
13486;BME280;6815;59.336;17.998;2023-01-24T03:44:46;79675.88;;;-145.37;94.50
13486;BME280;6815;59.336;17.998;2023-01-24T03:47:17;79677.91;;;-145.37;94.81
13486;BME280;6815;59.336;17.998;2023-01-24T03:49:42;79691.97;;;-145.37;94.77
13486;BME280;6815;59.336;17.998;2023-01-24T03:52:27;79681.91;;;-145.37;94.69
13486;BME280;6815;59.336;17.998;2023-01-24T03:54:58;79673.88;;;-145.37;94.69
13486;BME280;6815;59.336;17.998;2023-01-24T03:57:27;79667.84;;;-145.37;94.59
13486;BME280;6815;59.336;17.998;2023-01-24T03:59:53;79671.84;;;-145.37;94.75
13486;BME280;6815;59.336;17.998;2023-01-24T04:02:20;79673.88;;;-145.37;95.21
13486;BME280;6815;59.336;17.998;2023-01-24T04:04:46;79665.81;;;-145.37;95.15
13486;BME280;6815;59.336;17.998;2023-01-24T04:07:31;79667.84;;;-145.37;95.30
13486;BME280;6815;59.336;17.998;2023-01-24T04:09:56;79657.78;;;-145.37;95.72
13486;BME280;6815;59.336;17.998;2023-01-24T04:12:25;79667.84;;;-145.37;95.46
13486;BME280;6815;59.336;17.998;2023-01-24T04:14:51;79671.84;;;-145.37;95.48
13486;BME280;6815;59.336;17.998;2023-01-24T04:17:18;79691.97;;;-145.37;95.36
13486;BME280;6815;59.336;17.998;2023-01-24T04:19:44;79683.94;;;-145.37;95.66
13486;BME280;6815;59.336;17.998;2023-01-24T04:22:17;79694.00;;;-145.37;95.94
13486;BME280;6815;59.336;17.998;2023-01-24T04:24:52;79687.97;;;-145.37;96.15
13486;BME280;6815;59.336;17.998;2023-01-24T04:27:18;79687.97;;;-145.37;95.83
13486;BME280;6815;59.336;17.998;2023-01-24T04:29:44;79679.91;;;-145.37;95.63
13486;BME280;6815;59.336;17.998;2023-01-24T04:32:10;79675.88;;;-145.37;96.16
13486;BME280;6815;59.336;17.998;2023-01-24T04:34:36;79675.88;;;-145.37;96.16
13486;BME280;6815;59.336;17.998;2023-01-24T04:37:03;79683.94;;;-145.37;96.18
13486;BME280;6815;59.336;17.998;2023-01-24T04:39:29;79683.94;;;-145.37;96.41
13486;BME280;6815;59.336;17.998;2023-01-24T04:41:55;79665.81;;;-145.37;96.71
13486;BME280;6815;59.336;17.998;2023-01-24T04:44:20;79659.78;;;-145.37;96.43
13486;BME280;6815;59.336;17.998;2023-01-24T04:46:46;79661.78;;;-145.37;96.78
13486;BME280;6815;59.336;17.998;2023-01-24T04:49:12;79665.81;;;-145.37;96.74
13486;BME280;6815;59.336;17.998;2023-01-24T04:51:37;79663.81;;;-145.37;96.91
13486;BME280;6815;59.336;17.998;2023-01-24T04:54:11;79643.69;;;-145.37;96.69
13486;BME280;6815;59.336;17.998;2023-01-24T04:56:37;79635.63;;;-145.37;96.71
13486;BME280;6815;59.336;17.998;2023-01-24T04:59:03;79629.59;;;-145.37;96.83
13486;BME280;6815;59.336;17.998;2023-01-24T05:01:28;79627.59;;;-145.37;96.94
13486;BME280;6815;59.336;17.998;2023-01-24T05:03:55;79633.63;;;-145.37;96.94
13486;BME280;6815;59.336;17.998;2023-01-24T05:06:25;79629.59;;;-145.37;97.12
13486;BME280;6815;59.336;17.998;2023-01-24T05:08:52;79623.56;;;-145.37;97.47
13486;BME280;6815;59.336;17.998;2023-01-24T05:11:17;79629.59;;;-145.37;97.49
13486;BME280;6815;59.336;17.998;2023-01-24T05:13:43;79615.50;;;-145.37;97.65
13486;BME280;6815;59.336;17.998;2023-01-24T05:16:08;79619.53;;;-145.37;97.63
13486;BME280;6815;59.336;17.998;2023-01-24T05:18:34;79613.50;;;-145.37;97.29
13486;BME280;6815;59.336;17.998;2023-01-24T05:21:29;79629.59;;;-145.37;97.94
13486;BME280;6815;59.336;17.998;2023-01-24T05:23:54;79619.53;;;-145.37;97.94
13486;BME280;6815;59.336;17.998;2023-01-24T05:26:21;79611.47;;;-145.37;98.20
13486;BME280;6815;59.336;17.998;2023-01-24T05:28:48;79625.56;;;-145.37;98.32
13486;BME280;6815;59.336;17.998;2023-01-24T05:31:14;79607.47;;;-145.37;98.26
13486;BME280;6815;59.336;17.998;2023-01-24T05:33:40;79603.44;;;-145.37;98.46
13486;BME280;6815;59.336;17.998;2023-01-24T05:36:09;79599.41;;;-145.37;98.50
13486;BME280;6815;59.336;17.998;2023-01-24T05:38:35;79591.38;;;-145.37;98.69
13486;BME280;6815;59.336;17.998;2023-01-24T05:41:03;79591.38;;;-145.37;99.32
13486;BME280;6815;59.336;17.998;2023-01-24T05:43:30;79581.31;;;-145.37;99.32
13486;BME280;6815;59.336;17.998;2023-01-24T05:46:01;79595.38;;;-145.37;99.65
13486;BME280;6815;59.336;17.998;2023-01-24T05:48:29;79575.25;;;-145.37;99.98
13486;BME280;6815;59.336;17.998;2023-01-24T05:50:57;79573.25;;;-145.37;100.00
13486;BME280;6815;59.336;17.998;2023-01-24T05:53:23;79563.19;;;-145.37;99.86
13486;BME280;6815;59.336;17.998;2023-01-24T05:56:00;79567.22;;;-145.37;100.00
13486;BME280;6815;59.336;17.998;2023-01-24T05:58:29;79569.22;;;-145.37;100.00
13486;BME280;6815;59.336;17.998;2023-01-24T06:00:56;79567.22;;;-145.37;100.00
13486;BME280;6815;59.336;17.998;2023-01-24T06:03:22;79565.19;;;-145.37;100.00
13486;BME280;6815;59.336;17.998;2023-01-24T06:06:11;79575.25;;;-145.37;100.00
13486;BME280;6815;59.336;17.998;2023-01-24T06:09:05;79563.19;;;-145.37;100.00
13486;BME280;6815;59.336;17.998;2023-01-24T06:11:31;79567.22;;;-145.37;100.00
13486;BME280;6815;59.336;17.998;2023-01-24T06:14:00;79557.16;;;-145.37;100.00
13486;BME280;6815;59.336;17.998;2023-01-24T06:16:26;79553.13;;;-145.37;100.00
13486;BME280;6815;59.336;17.998;2023-01-24T06:18:54;79553.13;;;-145.37;100.00
13486;BME280;6815;59.336;17.998;2023-01-24T06:24:48;79549.09;;;-145.37;100.00
13486;BME280;6815;59.336;17.998;2023-01-24T06:27:14;79537.03;;;-145.37;100.00
13486;BME280;6815;59.336;17.998;2023-01-24T06:29:40;79535.03;;;-145.37;100.00
13486;BME280;6815;59.336;17.998;2023-01-24T06:35:17;79537.03;;;-145.37;100.00
13486;BME280;6815;59.336;17.998;2023-01-24T06:37:51;79524.97;;;-145.37;100.00
13486;BME280;6815;59.336;17.998;2023-01-24T06:40:21;79526.97;;;-145.37;100.00
13486;BME280;6815;59.336;17.998;2023-01-24T06:42:50;79533.00;;;-145.37;100.00
13486;BME280;6815;59.336;17.998;2023-01-24T06:45:43;79531.00;;;-145.37;100.00
13486;BME280;6815;59.336;17.998;2023-01-24T06:48:10;79531.00;;;-145.37;100.00
13486;BME280;6815;59.336;17.998;2023-01-24T06:50:40;79522.94;;;-145.37;100.00
13486;BME280;6815;59.336;17.998;2023-01-24T06:53:06;79510.88;;;-145.37;100.00
13486;BME280;6815;59.336;17.998;2023-01-24T06:55:34;79516.91;;;-145.37;100.00
13486;BME280;6815;59.336;17.998;2023-01-24T06:58:01;79510.88;;;-145.37;100.00
13486;BME280;6815;59.336;17.998;2023-01-24T07:00:29;79504.84;;;-145.37;100.00
13486;BME280;6815;59.336;17.998;2023-01-24T07:03:02;79502.81;;;-145.37;100.00
13486;BME280;6815;59.336;17.998;2023-01-24T07:05:31;79502.81;;;-145.37;100.00
13486;BME280;6815;59.336;17.998;2023-01-24T07:07:56;79506.84;;;-145.37;100.00
13486;BME280;6815;59.336;17.998;2023-01-24T07:10:22;79500.81;;;-145.37;100.00
13486;BME280;6815;59.336;17.998;2023-01-24T07:12:48;79502.81;;;-145.37;100.00
13486;BME280;6815;59.336;17.998;2023-01-24T07:15:13;79502.81;;;-145.37;100.00
13486;BME280;6815;59.336;17.998;2023-01-24T07:17:39;79510.88;;;-145.37;100.00
13486;BME280;6815;59.336;17.998;2023-01-24T07:20:06;79500.81;;;-145.37;100.00
13486;BME280;6815;59.336;17.998;2023-01-24T07:22:32;79504.84;;;-145.37;100.00
13486;BME280;6815;59.336;17.998;2023-01-24T07:24:58;79514.91;;;-145.37;100.00
13486;BME280;6815;59.336;17.998;2023-01-24T07:27:25;79512.88;;;-145.37;100.00
13486;BME280;6815;59.336;17.998;2023-01-24T07:29:50;79498.78;;;-145.37;100.00
13486;BME280;6815;59.336;17.998;2023-01-24T07:32:16;79494.78;;;-145.37;100.00
13486;BME280;6815;59.336;17.998;2023-01-24T07:34:42;79492.75;;;-145.37;100.00
13486;BME280;6815;59.336;17.998;2023-01-24T07:37:08;79490.75;;;-145.37;100.00
13486;BME280;6815;59.336;17.998;2023-01-24T07:39:33;79488.72;;;-145.37;100.00
13486;BME280;6815;59.336;17.998;2023-01-24T07:41:59;79480.69;;;-145.37;100.00
13486;BME280;6815;59.336;17.998;2023-01-24T07:44:24;79488.72;;;-145.37;100.00
13486;BME280;6815;59.336;17.998;2023-01-24T07:46:50;79482.69;;;-145.37;100.00
13486;BME280;6815;59.336;17.998;2023-01-24T07:49:15;79486.72;;;-145.37;100.00
13486;BME280;6815;59.336;17.998;2023-01-24T07:51:42;79496.78;;;-145.37;100.00
13486;BME280;6815;59.336;17.998;2023-01-24T07:54:08;79484.72;;;-145.37;100.00
13486;BME280;6815;59.336;17.998;2023-01-24T07:56:33;79484.72;;;-145.37;100.00
13486;BME280;6815;59.336;17.998;2023-01-24T07:58:59;79476.66;;;-145.37;100.00
13486;BME280;6815;59.336;17.998;2023-01-24T08:01:25;79478.69;;;-145.37;100.00
13486;BME280;6815;59.336;17.998;2023-01-24T08:03:58;79474.66;;;-145.37;100.00
13486;BME280;6815;59.336;17.998;2023-01-24T08:06:24;79462.56;;;-145.37;100.00
13486;BME280;6815;59.336;17.998;2023-01-24T08:08:50;79466.59;;;-145.37;100.00
13486;BME280;6815;59.336;17.998;2023-01-24T08:11:16;79452.50;;;-145.37;100.00
13486;BME280;6815;59.336;17.998;2023-01-24T08:13:46;79448.50;;;-145.37;100.00
13486;BME280;6815;59.336;17.998;2023-01-24T08:16:12;79442.44;;;-145.37;100.00
13486;BME280;6815;59.336;17.998;2023-01-24T08:18:38;79430.38;;;-145.37;100.00
13486;BME280;6815;59.336;17.998;2023-01-24T08:21:04;79432.41;;;-145.37;100.00
13486;BME280;6815;59.336;17.998;2023-01-24T08:23:30;79424.34;;;-145.37;100.00
13486;BME280;6815;59.336;17.998;2023-01-24T08:26:02;79420.31;;;-145.37;100.00
13486;BME280;6815;59.336;17.998;2023-01-24T08:28:27;79414.28;;;-145.37;100.00
13486;BME280;6815;59.336;17.998;2023-01-24T08:30:57;79412.28;;;-145.37;100.00
13486;BME280;6815;59.336;17.998;2023-01-24T08:33:23;79416.28;;;-145.37;100.00
13486;BME280;6815;59.336;17.998;2023-01-24T08:35:48;79414.28;;;-145.37;100.00
13486;BME280;6815;59.336;17.998;2023-01-24T08:38:14;79412.28;;;-145.37;100.00
13486;BME280;6815;59.336;17.998;2023-01-24T08:40:40;79402.22;;;-145.37;100.00
13486;BME280;6815;59.336;17.998;2023-01-24T08:43:06;79408.25;;;-145.37;100.00
13486;BME280;6815;59.336;17.998;2023-01-24T08:45:32;79412.28;;;-145.37;100.00
13486;BME280;6815;59.336;17.998;2023-01-24T08:47:58;79412.28;;;-145.37;100.00
13486;BME280;6815;59.336;17.998;2023-01-24T08:50:23;79404.22;;;-145.37;100.00
13486;BME280;6815;59.336;17.998;2023-01-24T08:52:49;79418.31;;;-145.37;100.00
13486;BME280;6815;59.336;17.998;2023-01-24T08:55:15;79412.28;;;-145.37;100.00
13486;BME280;6815;59.336;17.998;2023-01-24T08:57:40;79412.28;;;-145.37;100.00
13486;BME280;6815;59.336;17.998;2023-01-24T09:00:07;79402.22;;;-145.37;100.00
13486;BME280;6815;59.336;17.998;2023-01-24T09:02:33;79390.13;;;-145.37;100.00
13486;BME280;6815;59.336;17.998;2023-01-24T09:05:03;79394.16;;;-145.37;100.00
13486;BME280;6815;59.336;17.998;2023-01-24T09:07:28;79394.16;;;-145.37;100.00
13486;BME280;6815;59.336;17.998;2023-01-24T09:09:54;79378.06;;;-145.37;100.00
13486;BME280;6815;59.336;17.998;2023-01-24T09:12:19;79368.00;;;-145.37;100.00
13486;BME280;6815;59.336;17.998;2023-01-24T09:14:45;79372.03;;;-145.37;100.00
13486;BME280;6815;59.336;17.998;2023-01-24T09:17:10;79378.06;;;-145.37;100.00
13486;BME280;6815;59.336;17.998;2023-01-24T09:19:36;79374.03;;;-145.37;100.00
13486;BME280;6815;59.336;17.998;2023-01-24T09:22:01;79376.06;;;-145.37;100.00
13486;BME280;6815;59.336;17.998;2023-01-24T09:24:27;79372.03;;;-145.37;100.00
13486;BME280;6815;59.336;17.998;2023-01-24T09:26:52;79380.06;;;-145.37;100.00
13486;BME280;6815;59.336;17.998;2023-01-24T09:29:18;79374.03;;;-145.37;100.00
13486;BME280;6815;59.336;17.998;2023-01-24T09:31:46;79370.00;;;-145.37;100.00
13486;BME280;6815;59.336;17.998;2023-01-24T09:34:12;79370.00;;;-145.37;100.00
13486;BME280;6815;59.336;17.998;2023-01-24T09:36:37;79376.06;;;-145.37;100.00
13486;BME280;6815;59.336;17.998;2023-01-24T09:39:03;79372.03;;;-145.37;100.00
13486;BME280;6815;59.336;17.998;2023-01-24T09:44:28;79372.03;;;-145.37;100.00
13486;BME280;6815;59.336;17.998;2023-01-24T09:46:52;79372.03;;;-145.37;100.00
13486;BME280;6815;59.336;17.998;2023-01-24T09:49:38;79378.06;;;-145.37;100.00
13486;BME280;6815;59.336;17.998;2023-01-24T09:52:12;79380.06;;;-145.37;100.00
13486;BME280;6815;59.336;17.998;2023-01-24T09:54:50;79382.09;;;-145.37;100.00
13486;BME280;6815;59.336;17.998;2023-01-24T10:00:28;79368.00;;;-145.37;100.00
13486;BME280;6815;59.336;17.998;2023-01-24T10:02:56;79384.09;;;-145.37;100.00
13486;BME280;6815;59.336;17.998;2023-01-24T10:05:28;79374.03;;;-145.37;100.00
13486;BME280;6815;59.336;17.998;2023-01-24T10:10:44;79359.94;;;-145.37;100.00
13486;BME280;6815;59.336;17.998;2023-01-24T10:24:19;79339.81;;;-145.37;100.00
13486;BME280;6815;59.336;17.998;2023-01-24T10:26:50;79339.81;;;-145.37;100.00
13486;BME280;6815;59.336;17.998;2023-01-24T10:29:24;79335.81;;;-145.37;100.00
13486;BME280;6815;59.336;17.998;2023-01-24T10:34:44;79341.84;;;-145.37;100.00
13486;BME280;6815;59.336;17.998;2023-01-24T10:37:17;79339.81;;;-145.37;100.00
13486;BME280;6815;59.336;17.998;2023-01-24T10:39:44;79341.84;;;-145.37;100.00
13486;BME280;6815;59.336;17.998;2023-01-24T10:45:27;79329.78;;;-145.37;100.00
13486;BME280;6815;59.336;17.998;2023-01-24T10:48:09;79325.75;;;-145.37;100.00
13486;BME280;6815;59.336;17.998;2023-01-24T10:50:42;79315.69;;;-145.37;100.00
13486;BME280;6815;59.336;17.998;2023-01-24T10:53:25;79311.66;;;-145.37;100.00
13486;BME280;6815;59.336;17.998;2023-01-24T10:55:58;79307.63;;;-145.37;100.00
13486;BME280;6815;59.336;17.998;2023-01-24T10:58:32;79301.59;;;-145.37;100.00
13486;BME280;6815;59.336;17.998;2023-01-24T11:01:00;79283.50;;;-145.37;100.00
13486;BME280;6815;59.336;17.998;2023-01-24T11:03:31;79285.50;;;-145.37;100.00
13486;BME280;6815;59.336;17.998;2023-01-24T11:06:03;79285.50;;;-145.37;100.00
13486;BME280;6815;59.336;17.998;2023-01-24T11:08:34;79283.50;;;-145.37;100.00
13486;BME280;6815;59.336;17.998;2023-01-24T11:11:01;79281.47;;;-145.37;100.00
13486;BME280;6815;59.336;17.998;2023-01-24T11:13:47;79275.44;;;-145.37;100.00
13486;BME280;6815;59.336;17.998;2023-01-24T11:18:55;79271.41;;;-145.37;100.00
13486;BME280;6815;59.336;17.998;2023-01-24T11:21:22;79271.41;;;-145.37;100.00
13486;BME280;6815;59.336;17.998;2023-01-24T11:24:17;79271.41;;;-145.37;100.00
13486;BME280;6815;59.336;17.998;2023-01-24T11:27:04;79271.41;;;-145.37;100.00
13486;BME280;6815;59.336;17.998;2023-01-24T11:29:31;79263.38;;;-145.37;100.00
13486;BME280;6815;59.336;17.998;2023-01-24T11:35:15;79259.34;;;-145.37;100.00
13486;BME280;6815;59.336;17.998;2023-01-24T11:46:51;79249.28;;;-145.37;100.00
13486;BME280;6815;59.336;17.998;2023-01-24T11:49:41;79249.28;;;-145.37;100.00
13486;BME280;6815;59.336;17.998;2023-01-24T12:01:33;79211.06;;;-145.37;100.00
13486;BME280;6815;59.336;17.998;2023-01-24T12:06:42;79203.00;;;-145.37;100.00
13486;BME280;6815;59.336;17.998;2023-01-24T12:12:12;79192.94;;;-145.37;100.00
13486;BME280;6815;59.336;17.998;2023-01-24T12:17:27;79190.94;;;-145.37;100.00
13486;BME280;6815;59.336;17.998;2023-01-24T12:23:02;79182.88;;;-145.37;100.00
13486;BME280;6815;59.336;17.998;2023-01-24T12:25:35;79184.91;;;-145.37;100.00
13486;BME280;6815;59.336;17.998;2023-01-24T12:28:06;79164.78;;;-145.37;100.00
13486;BME280;6815;59.336;17.998;2023-01-24T12:30:44;79168.81;;;-145.37;100.00
13486;BME280;6815;59.336;17.998;2023-01-24T12:33:40;79170.81;;;-145.37;100.00
13486;BME280;6815;59.336;17.998;2023-01-24T12:36:15;79168.81;;;-145.37;100.00
13486;BME280;6815;59.336;17.998;2023-01-24T12:38:54;79160.75;;;-145.37;100.00
13486;BME280;6815;59.336;17.998;2023-01-24T12:52:19;79142.66;;;-145.37;100.00
13486;BME280;6815;59.336;17.998;2023-01-24T12:54:53;79142.66;;;-145.37;100.00
13486;BME280;6815;59.336;17.998;2023-01-24T12:57:28;79140.63;;;-145.37;100.00
13486;BME280;6815;59.336;17.998;2023-01-24T12:59:55;79142.66;;;-145.37;100.00
13486;BME280;6815;59.336;17.998;2023-01-24T13:02:50;79134.59;;;-145.37;100.00
13486;BME280;6815;59.336;17.998;2023-01-24T13:13:47;79138.63;;;-145.37;100.00
13486;BME280;6815;59.336;17.998;2023-01-24T13:19:36;79140.63;;;-145.37;100.00
13486;BME280;6815;59.336;17.998;2023-01-24T13:27:55;79146.66;;;-145.37;100.00
13486;BME280;6815;59.336;17.998;2023-01-24T13:30:49;79138.63;;;-145.37;100.00
13486;BME280;6815;59.336;17.998;2023-01-24T13:33:26;79140.63;;;-145.37;100.00
13486;BME280;6815;59.336;17.998;2023-01-24T13:35:54;79154.72;;;-145.37;100.00
13486;BME280;6815;59.336;17.998;2023-01-24T13:38:26;79146.66;;;-145.37;100.00
13486;BME280;6815;59.336;17.998;2023-01-24T13:41:04;79132.59;;;-145.37;100.00
13486;BME280;6815;59.336;17.998;2023-01-24T13:46:03;79140.63;;;-145.37;100.00
13486;BME280;6815;59.336;17.998;2023-01-24T13:54:00;79140.63;;;-145.37;100.00
13486;BME280;6815;59.336;17.998;2023-01-24T13:56:26;79146.66;;;-145.37;100.00
13486;BME280;6815;59.336;17.998;2023-01-24T13:58:52;79146.66;;;-145.37;100.00
13486;BME280;6815;59.336;17.998;2023-01-24T14:01:18;79146.66;;;-145.37;100.00
13486;BME280;6815;59.336;17.998;2023-01-24T14:04:12;79146.66;;;-145.37;100.00
13486;BME280;6815;59.336;17.998;2023-01-24T14:06:43;79146.66;;;-145.37;100.00
13486;BME280;6815;59.336;17.998;2023-01-24T14:09:19;79142.66;;;-145.37;100.00
13486;BME280;6815;59.336;17.998;2023-01-24T14:11:56;79148.69;;;-145.37;100.00
13486;BME280;6815;59.336;17.998;2023-01-24T14:14:31;79144.66;;;-145.37;100.00
13486;BME280;6815;59.336;17.998;2023-01-24T14:17:00;79136.59;;;-145.37;100.00
13486;BME280;6815;59.336;17.998;2023-01-24T14:19:34;79148.69;;;-145.37;100.00
13486;BME280;6815;59.336;17.998;2023-01-24T14:24:52;79132.59;;;-145.37;100.00
13486;BME280;6815;59.336;17.998;2023-01-24T14:30:20;79122.53;;;-145.37;100.00
13486;BME280;6815;59.336;17.998;2023-01-24T14:32:55;79116.50;;;-145.37;100.00
13486;BME280;6815;59.336;17.998;2023-01-24T14:35:32;79114.47;;;-145.37;100.00
13486;BME280;6815;59.336;17.998;2023-01-24T14:38:30;79118.50;;;-145.37;100.00
13486;BME280;6815;59.336;17.998;2023-01-24T14:40:56;79116.50;;;-145.37;100.00
13486;BME280;6815;59.336;17.998;2023-01-24T14:43:24;79124.53;;;-145.37;100.00
13486;BME280;6815;59.336;17.998;2023-01-24T14:45:54;79118.50;;;-145.37;100.00
13486;BME280;6815;59.336;17.998;2023-01-24T14:48:24;79122.53;;;-145.37;100.00
13486;BME280;6815;59.336;17.998;2023-01-24T14:50:58;79140.63;;;-145.37;100.00